createdAt,value
2023-03-17T00:01:15.397Z,-3.01
2023-03-17T00:03:43.002Z,-3.00
2023-03-17T00:06:17.220Z,-3.03
2023-03-17T00:08:44.075Z,-3.06
2023-03-17T00:11:14.287Z,-3.06
2023-03-17T00:13:40.642Z,-3.09
2023-03-17T00:16:12.330Z,-3.12
2023-03-17T00:18:38.760Z,-3.13
2023-03-17T00:21:05.238Z,-3.14
2023-03-17T00:23:31.525Z,-3.16
2023-03-17T00:25:57.754Z,-3.15
2023-03-17T00:28:25.908Z,-3.14
2023-03-17T00:30:55.686Z,-3.15
2023-03-17T00:33:23.491Z,-3.17
2023-03-17T00:35:49.889Z,-3.18
2023-03-17T00:38:17.126Z,-3.17
2023-03-17T00:40:43.867Z,-3.14
2023-03-17T00:43:10.273Z,-3.12
2023-03-17T00:45:37.529Z,-3.12
2023-03-17T00:48:09.782Z,-3.12
2023-03-17T00:50:36.129Z,-3.15
2023-03-17T00:53:02.658Z,-3.17
2023-03-17T00:55:30.164Z,-3.26
2023-03-17T00:57:56.476Z,-3.36
2023-03-17T01:00:28.527Z,-3.44
2023-03-17T01:02:56.171Z,-3.47
2023-03-17T01:05:23.937Z,-3.49
2023-03-17T01:07:52.318Z,-3.53
2023-03-17T01:10:23.264Z,-3.54
2023-03-17T01:12:50.161Z,-3.56
2023-03-17T01:15:16.669Z,-3.60
2023-03-17T01:17:43.401Z,-3.63
2023-03-17T01:20:23.767Z,-3.69
2023-03-17T01:22:50.354Z,-3.75
2023-03-17T01:25:17.420Z,-3.80
2023-03-17T01:27:44.417Z,-3.84
2023-03-17T01:30:13.561Z,-3.89
2023-03-17T01:32:39.840Z,-3.92
2023-03-17T01:35:06.438Z,-3.96
2023-03-17T01:37:32.756Z,-3.99
2023-03-17T01:39:59.040Z,-3.98
2023-03-17T01:42:25.414Z,-3.95
2023-03-17T01:45:05.860Z,-3.92
2023-03-17T01:47:32.306Z,-3.90
2023-03-17T01:50:08.091Z,-3.93
2023-03-17T01:52:36.863Z,-3.93
2023-03-17T01:55:05.295Z,-3.91
2023-03-17T01:57:37.679Z,-3.87
2023-03-17T02:00:09.088Z,-3.87
2023-03-17T02:02:43.427Z,-3.86
2023-03-17T02:05:11.029Z,-3.86
2023-03-17T02:07:37.377Z,-3.86
2023-03-17T02:10:04.684Z,-3.85
2023-03-17T02:12:31.025Z,-3.82
2023-03-17T02:14:57.519Z,-3.81
2023-03-17T02:17:24.915Z,-3.81
2023-03-17T02:19:51.455Z,-3.82
2023-03-17T02:22:18.181Z,-3.86
2023-03-17T02:24:52.159Z,-3.90
2023-03-17T02:27:20.720Z,-3.90
2023-03-17T02:29:47.093Z,-3.95
2023-03-17T02:32:14.822Z,-3.98
2023-03-17T02:34:41.059Z,-3.99
2023-03-17T02:37:08.036Z,-4.01
2023-03-17T02:39:34.362Z,-4.04
2023-03-17T02:42:01.703Z,-4.08
2023-03-17T02:44:28.078Z,-4.14
2023-03-17T02:46:54.463Z,-4.18
2023-03-17T02:49:21.139Z,-4.23
2023-03-17T02:51:47.457Z,-4.30
2023-03-17T02:54:13.892Z,-4.36
2023-03-17T02:56:40.168Z,-4.40
2023-03-17T02:59:06.623Z,-4.42
2023-03-17T03:01:33.020Z,-4.46
2023-03-17T03:03:59.561Z,-4.47
2023-03-17T03:06:26.368Z,-4.46
2023-03-17T03:08:53.108Z,-4.44
2023-03-17T03:11:19.358Z,-4.40
2023-03-17T03:13:45.666Z,-4.37
2023-03-17T03:16:12.013Z,-4.37
2023-03-17T03:18:38.264Z,-4.38
2023-03-17T03:21:04.977Z,-4.39
2023-03-17T03:23:31.487Z,-4.38
2023-03-17T03:25:57.717Z,-4.38
2023-03-17T03:28:24.017Z,-4.37
2023-03-17T03:30:50.634Z,-4.36
2023-03-17T03:33:17.004Z,-4.33
2023-03-17T03:35:43.744Z,-4.30
2023-03-17T03:38:10.515Z,-4.30
2023-03-17T03:40:37.065Z,-4.35
2023-03-17T03:43:19.848Z,-4.40
2023-03-17T03:45:48.619Z,-4.43
2023-03-17T03:48:14.963Z,-4.45
2023-03-17T03:50:41.254Z,-4.46
2023-03-17T03:53:07.644Z,-4.47
2023-03-17T03:55:33.959Z,-4.47
2023-03-17T03:58:00.258Z,-4.49
2023-03-17T04:00:26.637Z,-4.50
2023-03-17T04:02:53.085Z,-4.48
2023-03-17T04:05:19.453Z,-4.46
2023-03-17T04:07:45.820Z,-4.48
2023-03-17T04:10:12.700Z,-4.51
2023-03-17T04:12:39.008Z,-4.53
2023-03-17T04:15:06.576Z,-4.54
2023-03-17T04:17:32.809Z,-4.56
2023-03-17T04:19:59.047Z,-4.57
2023-03-17T04:22:25.436Z,-4.59
2023-03-17T04:24:51.709Z,-4.61
2023-03-17T04:27:18.037Z,-4.61
2023-03-17T04:29:44.470Z,-4.61
2023-03-17T04:32:11.503Z,-4.62
2023-03-17T04:34:37.761Z,-4.64
2023-03-17T04:37:04.155Z,-4.68
2023-03-17T04:39:30.702Z,-4.73
2023-03-17T04:41:57.093Z,-4.75
2023-03-17T04:44:23.501Z,-4.77
2023-03-17T04:46:50.084Z,-4.82
2023-03-17T04:49:16.415Z,-4.86
2023-03-17T04:51:42.882Z,-4.88
2023-03-17T04:54:09.241Z,-4.88
2023-03-17T04:56:35.574Z,-4.85
2023-03-17T04:59:02.288Z,-4.82
2023-03-17T05:01:28.646Z,-4.78
2023-03-17T05:03:54.955Z,-4.73
2023-03-17T05:06:21.382Z,-4.67
2023-03-17T05:08:47.630Z,-4.59
2023-03-17T05:11:13.975Z,-4.48
2023-03-17T05:13:40.303Z,-4.35
2023-03-17T05:16:07.295Z,-4.22
2023-03-17T05:18:33.922Z,-4.10
2023-03-17T05:21:00.268Z,-3.99
2023-03-17T05:23:26.633Z,-3.87
2023-03-17T05:25:53.037Z,-3.74
2023-03-17T05:28:19.560Z,-3.59
2023-03-17T05:30:46.221Z,-3.44
2023-03-17T05:33:13.036Z,-3.30
2023-03-17T05:35:39.453Z,-3.18
2023-03-17T05:38:06.376Z,-3.07
2023-03-17T05:40:33.023Z,-2.94
2023-03-17T05:42:59.524Z,-2.81
2023-03-17T05:45:25.763Z,-2.69
2023-03-17T05:47:52.080Z,-2.55
2023-03-17T05:50:18.479Z,-2.41
2023-03-17T05:52:44.758Z,-2.28
2023-03-17T05:55:11.179Z,-2.15
2023-03-17T05:57:37.503Z,-2.02
2023-03-17T06:00:03.908Z,-1.94
2023-03-17T06:02:31.404Z,-1.85
2023-03-17T06:04:57.924Z,-1.75
2023-03-17T06:07:24.518Z,-1.66
2023-03-17T06:09:50.835Z,-1.57
2023-03-17T06:12:17.093Z,-1.49
2023-03-17T06:14:43.533Z,-1.41
2023-03-17T06:17:09.909Z,-1.35
2023-03-17T06:19:36.301Z,-1.28
2023-03-17T06:22:02.682Z,-1.19
2023-03-17T06:24:29.085Z,-1.08
2023-03-17T06:26:55.474Z,-0.97
2023-03-17T06:29:21.910Z,-0.88
2023-03-17T06:31:48.220Z,-0.77
2023-03-17T06:34:14.572Z,-0.66
2023-03-17T06:36:41.072Z,-0.55
2023-03-17T06:39:07.394Z,-0.44
2023-03-17T06:41:33.764Z,-0.32
2023-03-17T06:44:00.115Z,-0.20
2023-03-17T06:46:26.579Z,-0.08
2023-03-17T06:48:52.935Z,0.06
2023-03-17T06:51:19.299Z,0.18
2023-03-17T06:53:45.612Z,0.28
2023-03-17T06:56:23.665Z,0.37
2023-03-17T06:58:55.548Z,0.51
2023-03-17T07:01:21.990Z,0.62
2023-03-17T07:03:48.360Z,0.72
2023-03-17T07:06:14.827Z,0.84
2023-03-17T07:08:41.233Z,0.93
2023-03-17T07:11:07.533Z,1.05
2023-03-17T07:13:33.890Z,1.17
2023-03-17T07:16:00.997Z,1.28
2023-03-17T07:18:27.697Z,1.39
2023-03-17T07:20:54.155Z,1.51
2023-03-17T07:23:21.456Z,1.63
2023-03-17T07:25:47.979Z,1.77
2023-03-17T07:28:14.337Z,1.90
2023-03-17T07:30:40.947Z,2.04
2023-03-17T07:33:07.325Z,2.17
2023-03-17T07:35:34.300Z,2.30
2023-03-17T07:38:01.086Z,2.43
2023-03-17T07:40:27.352Z,2.54
2023-03-17T07:42:53.619Z,2.64
2023-03-17T07:45:21.081Z,2.77
2023-03-17T07:47:48.047Z,2.92
2023-03-17T07:50:15.182Z,3.05
2023-03-17T07:52:41.429Z,3.16
2023-03-17T07:55:08.545Z,3.27
2023-03-17T07:57:35.036Z,3.37
2023-03-17T08:00:01.626Z,3.48
2023-03-17T08:02:38.012Z,3.61
2023-03-17T08:05:05.252Z,3.72
2023-03-17T08:07:31.606Z,3.82
2023-03-17T08:09:57.965Z,3.95
2023-03-17T08:12:24.427Z,4.08
2023-03-17T08:14:51.188Z,4.21
2023-03-17T08:17:17.704Z,4.37
2023-03-17T08:19:44.045Z,4.52
2023-03-17T08:22:10.368Z,4.66
2023-03-17T08:24:36.870Z,4.76
2023-03-17T08:27:03.252Z,4.86
2023-03-17T08:29:29.616Z,5.01
2023-03-17T08:31:56.470Z,5.18
2023-03-17T08:34:23.448Z,5.28
2023-03-17T08:36:50.345Z,5.40
2023-03-17T08:39:16.688Z,5.49
2023-03-17T08:41:43.049Z,5.61
2023-03-17T08:44:09.718Z,5.73
2023-03-17T08:46:36.097Z,5.86
2023-03-17T08:49:02.550Z,5.94
2023-03-17T08:51:30.334Z,6.01
2023-03-17T08:53:57.107Z,6.11
2023-03-17T08:56:23.501Z,6.24
2023-03-17T08:58:50.304Z,6.30
2023-03-17T09:01:17.863Z,6.34
2023-03-17T09:03:44.194Z,6.43
2023-03-17T09:06:11.171Z,6.45
2023-03-17T09:08:38.313Z,6.51
2023-03-17T09:11:05.486Z,6.57
2023-03-17T09:13:33.039Z,6.59
2023-03-17T09:15:59.893Z,6.60
2023-03-17T09:18:26.616Z,6.65
2023-03-17T09:20:52.872Z,6.75
2023-03-17T09:23:19.213Z,6.83
2023-03-17T09:25:45.482Z,6.92
2023-03-17T09:28:12.143Z,6.98
2023-03-17T09:30:41.936Z,7.03
2023-03-17T09:33:09.238Z,7.08
2023-03-17T09:35:35.589Z,7.24
2023-03-17T09:38:01.989Z,7.42
2023-03-17T09:40:46.878Z,7.62
2023-03-17T09:43:16.518Z,7.85
2023-03-17T09:45:43.900Z,8.13
2023-03-17T09:48:23.807Z,8.54
2023-03-17T09:50:53.311Z,8.98
2023-03-17T09:53:22.064Z,9.43
2023-03-17T09:55:52.163Z,9.90
2023-03-17T09:58:20.789Z,10.24
2023-03-17T10:00:47.066Z,10.69
2023-03-17T10:03:13.446Z,11.20
2023-03-17T10:05:39.986Z,11.64
2023-03-17T10:08:31.736Z,11.94
2023-03-17T10:11:13.483Z,12.33
2023-03-17T10:13:55.059Z,12.69
2023-03-17T10:16:25.309Z,12.99
2023-03-17T10:18:51.619Z,13.25
2023-03-17T10:21:20.216Z,13.51
2023-03-17T10:23:46.557Z,13.78
2023-03-17T10:26:31.468Z,13.96
2023-03-17T10:28:57.754Z,14.13
2023-03-17T10:31:28.947Z,14.40
2023-03-17T10:33:55.475Z,14.58
2023-03-17T10:36:32.671Z,14.60
2023-03-17T10:38:59.417Z,14.76
2023-03-17T10:41:27.577Z,15.08
2023-03-17T10:43:53.886Z,15.38
2023-03-17T10:46:21.924Z,15.67
2023-03-17T10:49:02.144Z,15.88
2023-03-17T10:51:30.571Z,16.05
2023-03-17T10:53:59.350Z,16.23
2023-03-17T10:56:26.645Z,16.46
2023-03-17T10:58:53.897Z,16.81
2023-03-17T11:01:23.145Z,17.38
2023-03-17T11:03:49.699Z,17.71
2023-03-17T11:06:17.917Z,17.97
2023-03-17T11:08:48.783Z,18.30
2023-03-17T11:11:24.496Z,18.77
2023-03-17T11:13:51.332Z,19.23
2023-03-17T11:16:22.179Z,19.59
2023-03-17T11:18:50.720Z,19.68
2023-03-17T11:21:29.376Z,19.73
2023-03-17T11:24:06.551Z,19.71
2023-03-17T11:26:32.845Z,19.69
2023-03-17T11:28:59.128Z,19.63
2023-03-17T11:31:34.109Z,19.37
2023-03-17T11:34:07.450Z,19.13
2023-03-17T11:36:37.111Z,19.37
2023-03-17T11:39:15.752Z,19.74
2023-03-17T11:41:54.216Z,20.18
2023-03-17T11:44:20.473Z,20.27
2023-03-17T11:47:03.153Z,20.16
2023-03-17T11:49:36.814Z,19.95
2023-03-17T11:52:10.865Z,19.91
2023-03-17T11:54:46.446Z,19.96
2023-03-17T11:57:16.669Z,20.18
2023-03-17T11:59:46.147Z,20.40
2023-03-17T12:02:24.879Z,20.56
2023-03-17T12:04:51.287Z,20.82
2023-03-17T12:07:19.852Z,21.22
2023-03-17T12:10:15.530Z,21.48
2023-03-17T12:12:49.852Z,21.66
2023-03-17T12:15:21.636Z,21.67
2023-03-17T12:17:54.156Z,21.65
2023-03-17T12:20:34.325Z,21.65
2023-03-17T12:23:03.643Z,21.71
2023-03-17T12:25:50.500Z,21.92
2023-03-17T12:28:19.324Z,22.03
2023-03-17T12:30:53.505Z,22.19
2023-03-17T12:33:24.095Z,22.53
2023-03-17T12:35:50.433Z,22.81
2023-03-17T12:38:43.204Z,22.84
2023-03-17T12:41:25.032Z,22.83
2023-03-17T12:44:06.693Z,22.80
2023-03-17T12:46:36.023Z,22.73
2023-03-17T12:49:21.365Z,23.13
2023-03-17T12:51:52.880Z,23.89
2023-03-17T12:54:20.886Z,24.52
2023-03-17T12:56:48.439Z,25.32
2023-03-17T12:59:17.845Z,25.91
2023-03-17T13:01:45.396Z,26.51
2023-03-17T13:04:29.394Z,26.74
2023-03-17T13:06:58.758Z,27.05
2023-03-17T13:09:31.815Z,27.44
2023-03-17T13:11:59.091Z,27.84
2023-03-17T13:14:44.443Z,28.36
2023-03-17T13:17:10.825Z,28.73
2023-03-17T13:19:46.356Z,28.63
2023-03-17T13:22:12.743Z,27.83
2023-03-17T13:24:49.136Z,26.37
2023-03-17T13:27:24.338Z,24.27
2023-03-17T13:29:50.705Z,22.43
2023-03-17T13:32:22.853Z,21.29
2023-03-17T13:35:01.640Z,20.44
2023-03-17T13:37:34.299Z,20.19
2023-03-17T13:40:04.010Z,19.93
2023-03-17T13:42:48.486Z,19.42
2023-03-17T13:45:41.230Z,19.16
2023-03-17T13:48:27.790Z,19.17
2023-03-17T13:50:59.143Z,19.40
2023-03-17T13:53:27.435Z,19.26
2023-03-17T13:56:12.962Z,18.93
2023-03-17T13:58:51.669Z,18.69
2023-03-17T14:01:18.905Z,18.27
2023-03-17T14:03:49.584Z,17.85
2023-03-17T14:06:17.892Z,17.45
2023-03-17T14:08:49.981Z,16.98
2023-03-17T14:11:32.309Z,16.38
2023-03-17T14:14:07.663Z,15.78
2023-03-17T14:16:36.129Z,15.13
2023-03-17T14:19:28.837Z,14.68
2023-03-17T14:22:01.378Z,14.30
2023-03-17T14:24:31.701Z,13.99
2023-03-17T14:27:03.174Z,13.70
2023-03-17T14:29:31.216Z,13.47
2023-03-17T14:32:05.470Z,13.25
2023-03-17T14:34:32.691Z,12.99
2023-03-17T14:37:03.649Z,12.78
2023-03-17T14:39:30.173Z,12.63
2023-03-17T14:41:57.672Z,12.48
2023-03-17T14:44:24.017Z,12.40
2023-03-17T14:46:50.439Z,12.29
2023-03-17T14:49:18.966Z,12.17
2023-03-17T14:51:48.206Z,12.07
2023-03-17T14:54:17.545Z,11.97
2023-03-17T14:56:48.114Z,11.87
2023-03-17T14:59:19.481Z,11.78
2023-03-17T15:01:46.441Z,11.68
2023-03-17T15:04:16.369Z,11.57
2023-03-17T15:07:02.979Z,11.45
2023-03-17T15:09:34.478Z,11.30
2023-03-17T15:12:03.793Z,11.16
2023-03-17T15:14:38.052Z,11.03
2023-03-17T15:17:06.751Z,10.89
2023-03-17T15:19:38.358Z,10.77
2023-03-17T15:22:20.860Z,10.62
2023-03-17T15:25:07.393Z,10.47
2023-03-17T15:27:33.931Z,10.36
2023-03-17T15:30:00.263Z,10.27
2023-03-17T15:32:28.003Z,10.19
2023-03-17T15:34:55.529Z,10.08
2023-03-17T15:37:23.398Z,10.03
2023-03-17T15:39:50.281Z,9.95
2023-03-17T15:42:19.561Z,9.88
2023-03-17T15:44:45.970Z,9.81
2023-03-17T15:47:13.875Z,9.75
2023-03-17T15:49:40.647Z,9.71
2023-03-17T15:52:26.593Z,9.65
2023-03-17T15:54:53.962Z,9.55
2023-03-17T15:57:20.640Z,9.49
2023-03-17T15:59:46.981Z,9.40
2023-03-17T16:02:20.553Z,9.30
2023-03-17T16:04:47.143Z,9.19
2023-03-17T16:07:13.547Z,9.09
2023-03-17T16:09:39.848Z,8.98
2023-03-17T16:12:09.772Z,8.86
2023-03-17T16:14:36.027Z,8.72
2023-03-17T16:17:02.518Z,8.57
2023-03-17T16:19:28.875Z,8.41
2023-03-17T16:21:55.278Z,8.26
2023-03-17T16:24:22.669Z,8.10
2023-03-17T16:26:49.074Z,7.94
2023-03-17T16:29:16.517Z,7.78
2023-03-17T16:31:44.146Z,7.63
2023-03-17T16:34:18.146Z,7.49
2023-03-17T16:36:46.789Z,7.33
2023-03-17T16:39:22.902Z,7.20
2023-03-17T16:41:49.621Z,7.06
2023-03-17T16:44:17.728Z,6.94
2023-03-17T16:46:44.123Z,6.85
2023-03-17T16:49:18.928Z,6.72
2023-03-17T16:51:45.422Z,6.61
2023-03-17T16:54:11.804Z,6.48
2023-03-17T16:56:38.991Z,6.36
2023-03-17T16:59:07.194Z,6.24
2023-03-17T17:01:33.741Z,6.16
2023-03-17T17:04:00.143Z,6.07
2023-03-17T17:06:26.552Z,5.99
2023-03-17T17:08:52.870Z,5.94
2023-03-17T17:11:19.457Z,5.89
2023-03-17T17:13:46.913Z,5.84
2023-03-17T17:16:30.197Z,5.77
2023-03-17T17:18:57.280Z,5.70
2023-03-17T17:21:23.690Z,5.63
2023-03-17T17:23:52.679Z,5.57
2023-03-17T17:26:19.998Z,5.51
2023-03-17T17:28:46.398Z,5.45
2023-03-17T17:31:13.155Z,5.41
2023-03-17T17:33:39.601Z,5.35
2023-03-17T17:36:10.697Z,5.29
2023-03-17T17:38:37.114Z,5.23
2023-03-17T17:41:03.705Z,5.16
2023-03-17T17:43:30.006Z,5.07
2023-03-17T17:45:57.274Z,4.99
2023-03-17T17:48:24.797Z,4.92
2023-03-17T17:50:51.992Z,4.86
2023-03-17T17:53:19.096Z,4.83
2023-03-17T17:55:47.094Z,4.77
2023-03-17T17:58:17.256Z,4.72
2023-03-17T18:00:43.609Z,4.66
2023-03-17T18:03:10.364Z,4.60
2023-03-17T18:05:36.832Z,4.56
2023-03-17T18:08:03.714Z,4.51
2023-03-17T18:10:30.615Z,4.46
2023-03-17T18:12:57.403Z,4.40
2023-03-17T18:15:26.121Z,4.34
2023-03-17T18:17:52.596Z,4.28
2023-03-17T18:20:20.185Z,4.25
2023-03-17T18:22:46.683Z,4.19
2023-03-17T18:25:14.449Z,4.15
2023-03-17T18:27:41.419Z,4.11
2023-03-17T18:30:09.411Z,4.07
2023-03-17T18:32:36.093Z,4.03
2023-03-17T18:35:05.636Z,4.00
2023-03-17T18:37:32.161Z,3.97
2023-03-17T18:40:13.315Z,3.93
2023-03-17T18:42:41.744Z,3.90
2023-03-17T18:45:09.801Z,3.86
2023-03-17T18:47:36.532Z,3.81
2023-03-17T18:50:03.275Z,3.76
2023-03-17T18:52:30.634Z,3.71
2023-03-17T18:54:56.992Z,3.67
2023-03-17T18:57:23.307Z,3.63
2023-03-17T18:59:49.681Z,3.59
2023-03-17T19:02:15.957Z,3.54
2023-03-17T19:04:42.543Z,3.49
2023-03-17T19:07:08.878Z,3.43
2023-03-17T19:09:35.225Z,3.38
2023-03-17T19:12:01.588Z,3.33
2023-03-17T19:14:28.820Z,3.29
2023-03-17T19:16:55.490Z,3.27
2023-03-17T19:19:22.170Z,3.23
2023-03-17T19:21:48.771Z,3.21
2023-03-17T19:24:15.195Z,3.18
2023-03-17T19:26:42.731Z,3.14
2023-03-17T19:29:09.498Z,3.11
2023-03-17T19:31:36.530Z,3.09
2023-03-17T19:34:03.830Z,3.07
2023-03-17T19:36:34.350Z,3.06
2023-03-17T19:39:01.563Z,3.05
2023-03-17T19:41:30.409Z,3.06
2023-03-17T19:43:56.851Z,3.05
2023-03-17T19:46:23.255Z,3.04
2023-03-17T19:48:50.187Z,3.01
2023-03-17T19:51:16.692Z,2.99
2023-03-17T19:53:43.223Z,2.97
2023-03-17T19:56:10.032Z,2.95
2023-03-17T19:58:36.821Z,2.93
2023-03-17T20:01:04.186Z,2.91
2023-03-17T20:03:30.646Z,2.91
2023-03-17T20:05:56.982Z,2.89
2023-03-17T20:08:23.486Z,2.87
2023-03-17T20:10:51.563Z,2.84
2023-03-17T20:13:17.980Z,2.81
2023-03-17T20:15:44.431Z,2.78
2023-03-17T20:18:11.003Z,2.78
2023-03-17T20:20:37.412Z,2.77
2023-03-17T20:23:04.228Z,2.74
2023-03-17T20:25:34.178Z,2.73
2023-03-17T20:28:00.619Z,2.69
2023-03-17T20:30:26.996Z,2.68
2023-03-17T20:32:53.915Z,2.63
2023-03-17T20:35:20.794Z,2.59
2023-03-17T20:37:48.312Z,2.55
2023-03-17T20:40:14.660Z,2.51
2023-03-17T20:42:41.140Z,2.48
2023-03-17T20:45:08.059Z,2.45
2023-03-17T20:47:34.420Z,2.43
2023-03-17T20:50:00.865Z,2.42
2023-03-17T20:52:29.530Z,2.41
2023-03-17T20:54:57.034Z,2.39
2023-03-17T20:57:23.435Z,2.38
2023-03-17T20:59:49.892Z,2.36
2023-03-17T21:02:16.743Z,2.34
2023-03-17T21:04:44.682Z,2.31
2023-03-17T21:07:11.221Z,2.29
2023-03-17T21:09:37.851Z,2.27
2023-03-17T21:12:05.394Z,2.23
2023-03-17T21:14:31.667Z,2.19
2023-03-17T21:16:58.311Z,2.13
2023-03-17T21:19:25.195Z,2.08
2023-03-17T21:21:51.563Z,2.02
2023-03-17T21:24:29.575Z,1.98
2023-03-17T21:26:56.553Z,1.92
2023-03-17T21:29:23.016Z,1.88
2023-03-17T21:31:49.562Z,1.84
2023-03-17T21:34:16.212Z,1.82
2023-03-17T21:36:42.729Z,1.79
2023-03-17T21:39:09.669Z,1.76
2023-03-17T21:41:36.560Z,1.73
2023-03-17T21:44:04.348Z,1.71
2023-03-17T21:46:31.763Z,1.69
2023-03-17T21:48:58.677Z,1.68
2023-03-17T21:51:25.224Z,1.67
2023-03-17T21:53:51.811Z,1.66
2023-03-17T21:56:19.064Z,1.65
2023-03-17T21:58:45.851Z,1.64
2023-03-17T22:01:12.379Z,1.63
2023-03-17T22:03:38.701Z,1.61
2023-03-17T22:06:05.316Z,1.58
2023-03-17T22:08:31.892Z,1.54
2023-03-17T22:10:58.188Z,1.50
2023-03-17T22:13:24.643Z,1.47
2023-03-17T22:15:51.059Z,1.43
2023-03-17T22:18:17.487Z,1.39
2023-03-17T22:20:43.827Z,1.35
2023-03-17T22:23:10.142Z,1.29
2023-03-17T22:25:36.674Z,1.25
2023-03-17T22:28:02.965Z,1.20
2023-03-17T22:30:29.420Z,1.13
2023-03-17T22:32:55.907Z,1.08
2023-03-17T22:35:22.999Z,1.07
2023-03-17T22:37:49.535Z,1.04
2023-03-17T22:40:17.088Z,1.02
2023-03-17T22:42:43.327Z,1.00
2023-03-17T22:45:12.681Z,0.97
2023-03-17T22:47:39.508Z,0.93
2023-03-17T22:50:06.017Z,0.90
2023-03-17T22:52:32.376Z,0.86
2023-03-17T22:54:58.776Z,0.85
2023-03-17T22:57:25.102Z,0.85
2023-03-17T22:59:51.476Z,0.87
2023-03-17T23:02:18.610Z,0.89
2023-03-17T23:04:45.117Z,0.91
2023-03-17T23:07:11.443Z,0.91
2023-03-17T23:09:37.744Z,0.90
2023-03-17T23:12:04.213Z,0.89
2023-03-17T23:14:30.577Z,0.90
2023-03-17T23:16:57.437Z,0.91
2023-03-17T23:19:23.781Z,0.90
2023-03-17T23:21:50.222Z,0.89
2023-03-17T23:24:16.673Z,0.87
2023-03-17T23:26:43.033Z,0.84
2023-03-17T23:29:09.381Z,0.82
2023-03-17T23:31:36.101Z,0.78
2023-03-17T23:34:03.007Z,0.74
2023-03-17T23:36:29.424Z,0.69
2023-03-17T23:38:55.896Z,0.67
2023-03-17T23:41:22.210Z,0.65
2023-03-17T23:43:49.358Z,0.62
2023-03-17T23:46:16.175Z,0.61
2023-03-17T23:48:43.006Z,0.60
2023-03-17T23:51:10.193Z,0.60
2023-03-17T23:53:36.587Z,0.60
2023-03-17T23:56:02.952Z,0.61
2023-03-17T23:58:29.251Z,0.61
